LEAS 200130Z AUTO VRB02KT 6000 SCT005 OVC013 15/14 Q1019 LEAS 200100Z AUTO 28003KT 6000 BKN005 BKN009 OVC013 15/14 Q1019 LEAS 200030Z AUTO 28001KT 9000 FEW005 BKN013 15/14 Q1019 LEAS 200000Z AUTO 00000KT 9000 FEW005 SCT013 15/14 Q1019 LEAS 192330Z AUTO 00000KT 6000 FEW007 BKN014 15/14 Q1019 LEAS 192300Z AUTO VRB01KT 9999 SCT007 BKN011 15/14 Q1019 LEAS 192230Z AUTO 08003KT 9999 SCT007 SCT011 15/14 Q1019 LEAS 192200Z AUTO 08003KT CAVOK 15/14 Q1019 LEAS 192130Z 08003KT 050V110 CAVOK 15/15 Q1019 TEMPO BKN010 LEAS 192100Z 08003KT 040V120 9999 FEW007 15/14 Q1019 TEMPO BKN010 LEAS 192030Z 08004KT 050V110 9999 FEW015 16/14 Q1019 TEMPO BKN010 LEAS 192000Z 07003KT 010V120 9999 FEW008 SCT015 16/14 Q1019 TEMPO BKN010 LEAS 191930Z 07004KT 010V110 9999 FEW010 SCT015 16/14 Q1018 TEMPO BKN010 LEAS 191900Z 06005KT 020V100 9999 SCT013 16/14 Q1018 NOSIG LEAS 191830Z 05004KT 360V090 9999 FEW013 17/14 Q1018 NOSIG LEAS 191800Z 04003KT 330V090 9999 FEW015 18/15 Q1018 NOSIG LEAS 191730Z 05005KT 350V110 9999 FEW015 18/14 Q1018 NOSIG LEAS 191700Z 06007KT 020V100 9999 FEW015 18/14 Q1018 NOSIG LEAS 191630Z 07007KT 350V130 CAVOK 19/14 Q1018 NOSIG LEAS 191600Z 06007KT 010V100 CAVOK 19/14 Q1018 NOSIG LEAS 191530Z 08007KT 020V130 CAVOK 19/13 Q1018 NOSIG LEAS 191500Z 07009KT 030V110 CAVOK 20/11 Q1018 NOSIG LEAS 191430Z 09009KT 060V120 CAVOK 19/12 Q1018 NOSIG LEAS 191400Z 06008KT 020V110 CAVOK 20/13 Q1018 NOSIG LEAS 191330Z 07008KT 010V100 CAVOK 20/12 Q1018 NOSIG LEAS 191300Z 06008KT 350V110 CAVOK 19/12 Q1018 NOSIG LEAS 191230Z 06007KT 350V100 CAVOK 20/14 Q1018 NOSIG LEAS 191200Z 06009KT 010V110 CAVOK 20/13 Q1019 NOSIG LEAS 191130Z 06007KT 360V110 CAVOK 20/12 Q1019 NOSIG LEAS 191100Z 07009KT 020V110 CAVOK 20/10 Q1019 NOSIG LEAS 191030Z 08007KT 030V120 CAVOK 21/12 Q1019 NOSIG LEAS 191000Z 08007G17KT 030V140 CAVOK 20/11 Q1019 NOSIG LEAS 190930Z 10008KT 060V160 CAVOK 20/11 Q1019 NOSIG LEAS 190900Z 11008KT 080V160 CAVOK 19/11 Q1020 NOSIG LEAS 190830Z 10008KT 060V160 CAVOK 18/10 Q1020 NOSIG LEAS 190800Z 10006KT 070V160 CAVOK 18/11 Q1020 NOSIG LEAS 190730Z 11007KT 070V160 9999 FEW043 18/11 Q1020 NOSIG LEAS 190700Z VRB02KT 9999 BKN044 16/12 Q1020 NOSIG LEAS 190630Z VRB02KT 9999 BKN045 16/11 Q1020 NOSIG LEAS 190600Z VRB02KT 9999 BKN046 16/11 Q1020 NOSIG LEAS 190530Z VRB01KT 9999 BKN045 15/11 Q1020 NOSIG LEAS 190500Z VRB02KT 9999 BKN045 15/11 Q1020 NOSIG LEAS 190430Z VRB02KT 9999 BKN045 15/11 Q1019 NOSIG LEAS 190400Z 17002KT 9999 3500W BKN045 15/11 Q1020 NOSIG LEAS 190330Z AUTO 16003KT 130V200 9999 OVC041 15/11 Q1020 LEAS 190300Z AUTO 22003KT 160V250 9999 OVC040 15/11 Q1020 LEAS 190230Z AUTO 21004KT 9999 OVC042 16/10 Q1020 LEAS 190200Z AUTO 23004KT 9999 OVC043 16/10 Q1020 LEAS 190130Z AUTO 20004KT 9999 OVC044 16/10 Q1020 LEAS 190100Z AUTO 22005KT 9999 OVC042 16/10 Q1020 LEAS 190030Z AUTO 21004KT 9999 OVC040 16/10 Q1020 LEAS 190000Z AUTO 21004KT 9999 OVC040 16/10 Q1020 LEAS 182330Z AUTO 19004KT 9999 OVC040 16/10 Q1020 LEAS 182300Z AUTO 19004KT 160V230 9999 SCT039 OVC049 16/10 Q1020 LEAS 182230Z AUTO 24004KT 9999 OVC041 16/10 Q1020 LEAS 182200Z AUTO 24004KT 9999 OVC040 16/10 Q1020 LEAS 182130Z 25003KT 9999 BKN040 16/10 Q1020 NOSIG LEAS 182100Z 20003KT 9999 4500NW BKN040 16/10 Q1020 NOSIG LEAS 182030Z 19003KT 9999 BKN040 16/11 Q1020 NOSIG LEAS 182000Z 19004KT 9999 BKN036 16/11 Q1020 NOSIG LEAS 181930Z 18003KT 140V230 9999 BKN032 16/11 Q1020 NOSIG LEAS 181900Z VRB02KT 9999 BKN032 16/10 Q1019 NOSIG LEAS 181830Z 26004KT 230V290 9999 BKN035 16/10 Q1019 NOSIG LEAS 181800Z 27005KT 230V300 9999 BKN030 16/10 Q1019 NOSIG LEAS 181730Z VRB02KT 9999 BKN030 16/10 Q1019 NOSIG LEAS 181700Z 27003KT 230V320 9999 BKN030 16/11 Q1019 NOSIG LEAS 181630Z 29005KT 240V320 9999 BKN030 16/12 Q1019 NOSIG LEAS 181600Z 28005KT 240V330 9999 FEW006 BKN025 16/13 Q1019 NOSIG LEAS 181530Z 28007KT 240V320 9999 FEW006 BKN022 16/13 Q1019 NOSIG LEAS 181500Z 30007KT 240V010 9999 FEW006 BKN022 17/14 Q1018 NOSIG LEAS 181430Z 29008KT 250V330 9999 FEW006 BKN020 17/15 Q1018 NOSIG LEAS 181400Z 29010KT 260V330 9999 BKN006 16/14 Q1018 NOSIG

METAR Messwerte "ASTURIAS/AVILES" LEAS

Zurück zur Übersicht

Ortsname
Ländercode / m ü. NN
Zeit Temperatur Taupunkt Rel.
Luftfeuchte
Luftdruck:
Altimeter
NN
Station
Wind in Beaufort
(Knoten)
Sichtweite
(Meter)
Wolken
(Meter über Grund)
Wettererscheinung
ASTURIAS/AVILES
ES 120
Fr 20.05. 03:30151494 %1019
1019
1005
Uml 1 (2)6000Bedeckt (400)
Wolkig (150)
 
ASTURIAS/AVILES
ES 120
Fr 20.05. 03:00151494 %1019
1019
1005
W 2 (3)6000Bedeckt (400)
Stark bewölkt (270)
Stark bewölkt (150)
 
ASTURIAS/AVILES
ES 120
Fr 20.05. 02:30151494 %1019
1019
1005
W 1 (1)9000Stark bewölkt (400)
Leicht bewölkt (150)
 
ASTURIAS/AVILES
ES 120
Fr 20.05. 02:00151494 %1019
1019
1005
Windstill9000Wolkig (400)
Leicht bewölkt (150)
 
ASTURIAS/AVILES
ES 120
Fr 20.05. 01:30151494 %1019
1019
1005
Windstill6000Stark bewölkt (430)
Leicht bewölkt (210)
 
ASTURIAS/AVILES
ES 120
Fr 20.05. 01:00151494 %1019
1019
1005
Uml 1 (1)>= 10000Stark bewölkt (340)
Wolkig (210)
 
ASTURIAS/AVILES
ES 120
Fr 20.05. 00:30151494 %1019
1019
1005
O 2 (3)>= 10000Wolkig (340)
Wolkig (210)
 
ASTURIAS/AVILES
ES 120
Fr 20.05. 00:00151494 %1019
1019
1005
O 2 (3)>= 10000Nicht signifikant 
ASTURIAS/AVILES
ES 120
Do 19.05. 23:301515100 %1019
1019
1005
O 2 (3)
NO - OSO
>= 10000Nicht signifikant 
ASTURIAS/AVILES
ES 120
Do 19.05. 23:00151494 %1019
1019
1005
O 2 (3)
NO - OSO
>= 10000Leicht bewölkt (210) 
ASTURIAS/AVILES
ES 120
Do 19.05. 22:30161488 %1019
1019
1005
O 2 (4)
NO - OSO
>= 10000Leicht bewölkt (460) 
ASTURIAS/AVILES
ES 120
Do 19.05. 22:00161488 %1019
1019
1005
ONO 2 (3)
N - OSO
>= 10000Wolkig (460)
Leicht bewölkt (240)
 
ASTURIAS/AVILES
ES 120
Do 19.05. 21:30161488 %1018
1018
1004
ONO 2 (4)
N - OSO
>= 10000Wolkig (460)
Leicht bewölkt (300)
 
ASTURIAS/AVILES
ES 120
Do 19.05. 21:00161488 %1018
1018
1004
ONO 2 (5)
NNO - O
>= 10000Wolkig (400) 
ASTURIAS/AVILES
ES 120
Do 19.05. 20:30171482 %1018
1018
1004
NO 2 (4)
N - O
>= 10000Leicht bewölkt (400) 
ASTURIAS/AVILES
ES 120
Do 19.05. 20:00181583 %1018
1018
1004
NO 2 (3)
NNW - O
>= 10000Leicht bewölkt (460) 
ASTURIAS/AVILES
ES 120
Do 19.05. 19:30181477 %1018
1018
1004
NO 2 (5)
N - OSO
>= 10000Leicht bewölkt (460) 
ASTURIAS/AVILES
ES 120
Do 19.05. 19:00181477 %1018
1018
1004
ONO 3 (7)
NNO - O
>= 10000Leicht bewölkt (460) 
ASTURIAS/AVILES
ES 120
Do 19.05. 18:30191473 %1018
1018
1004
ONO 3 (7)
N - SO
>= 10000Nicht signifikant 
ASTURIAS/AVILES
ES 120
Do 19.05. 18:00191473 %1018
1018
1004
ONO 3 (7)
N - O
>= 10000Nicht signifikant 
ASTURIAS/AVILES
ES 120
Do 19.05. 17:30191368 %1018
1018
1004
O 3 (7)
NNO - SO
>= 10000Nicht signifikant 
ASTURIAS/AVILES
ES 120
Do 19.05. 17:00201156 %1018
1018
1004
ONO 3 (9)
NNO - OSO
>= 10000Nicht signifikant 
ASTURIAS/AVILES
ES 120
Do 19.05. 16:30191264 %1018
1018
1004
O 3 (9)
ONO - OSO
>= 10000Nicht signifikant 
ASTURIAS/AVILES
ES 120
Do 19.05. 16:00201364 %1018
1018
1004
ONO 3 (8)
NNO - OSO
>= 10000Nicht signifikant 
ASTURIAS/AVILES
ES 120
Do 19.05. 15:30201260 %1018
1018
1004
ONO 3 (8)
N - O
>= 10000Nicht signifikant 
ASTURIAS/AVILES
ES 120
Do 19.05. 15:00191264 %1018
1018
1004
ONO 3 (8)
N - OSO
>= 10000Nicht signifikant 
ASTURIAS/AVILES
ES 120
Do 19.05. 14:30201468 %1018
1018
1004
ONO 3 (7)
N - O
>= 10000Nicht signifikant 
ASTURIAS/AVILES
ES 120
Do 19.05. 14:00201364 %1019
1019
1005
ONO 3 (9)
N - OSO
>= 10000Nicht signifikant 
ASTURIAS/AVILES
ES 120
Do 19.05. 13:30201260 %1019
1019
1005
ONO 3 (7)
N - OSO
>= 10000Nicht signifikant 
ASTURIAS/AVILES
ES 120
Do 19.05. 13:00201053 %1019
1019
1005
ONO 3 (9)
NNO - OSO
>= 10000Nicht signifikant 
ASTURIAS/AVILES
ES 120
Do 19.05. 12:30211256 %1019
1019
1005
O 3 (7)
NNO - OSO
>= 10000Nicht signifikant 
ASTURIAS/AVILES
ES 120
Do 19.05. 12:00201156 %1019
1019
1005
O 3 (7) - 5 (17)
NNO - SO
>= 10000Nicht signifikant 
ASTURIAS/AVILES
ES 120
Do 19.05. 11:30201156 %1019
1019
1005
O 3 (8)
ONO - SSO
>= 10000Nicht signifikant 
ASTURIAS/AVILES
ES 120
Do 19.05. 11:00191160 %1020
1020
1006
OSO 3 (8)
O - SSO
>= 10000Nicht signifikant 
ASTURIAS/AVILES
ES 120
Do 19.05. 10:30181059 %1020
1020
1006
O 3 (8)
ONO - SSO
>= 10000Nicht signifikant 
ASTURIAS/AVILES
ES 120
Do 19.05. 10:00181164 %1020
1020
1006
O 2 (6)
ONO - SSO
>= 10000Nicht signifikant 
ASTURIAS/AVILES
ES 120
Do 19.05. 09:30181164 %1020
1020
1006
OSO 3 (7)
ONO - SSO
>= 10000Leicht bewölkt (1300) 
ASTURIAS/AVILES
ES 120
Do 19.05. 09:00161277 %1020
1020
1006
Uml 1 (2)>= 10000Stark bewölkt (1300) 
ASTURIAS/AVILES
ES 120
Do 19.05. 08:30161172 %1020
1020
1006
Uml 1 (2)>= 10000Stark bewölkt (1400) 
ASTURIAS/AVILES
ES 120
Do 19.05. 08:00161172 %1020
1020
1006
Uml 1 (2)>= 10000Stark bewölkt (1400) 
ASTURIAS/AVILES
ES 120
Do 19.05. 07:30151177 %1020
1020
1006
Uml 1 (1)>= 10000Stark bewölkt (1400) 
ASTURIAS/AVILES
ES 120
Do 19.05. 07:00151177 %1020
1020
1006
Uml 1 (2)>= 10000Stark bewölkt (1400) 
ASTURIAS/AVILES
ES 120
Do 19.05. 06:30151177 %1019
1019
1005
Uml 1 (2)>= 10000Stark bewölkt (1400) 
ASTURIAS/AVILES
ES 120
Do 19.05. 06:00151177 %1020
1020
1006
S 1 (2)>= 10000Stark bewölkt (1400) 
ASTURIAS/AVILES
ES 120
Do 19.05. 05:30151177 %1020
1020
1006
SSO 2 (3)
SO - SSW
>= 10000Bedeckt (1200) 
ASTURIAS/AVILES
ES 120
Do 19.05. 05:00151177 %1020
1020
1006
SW 2 (3)
SSO - WSW
>= 10000Bedeckt (1200) 
ASTURIAS/AVILES
ES 120
Do 19.05. 04:30161068 %1020
1020
1006
SSW 2 (4)>= 10000Bedeckt (1300) 
ASTURIAS/AVILES
ES 120
Do 19.05. 04:00161068 %1020
1020
1006
SW 2 (4)>= 10000Bedeckt (1300) 
ASTURIAS/AVILES
ES 120
Do 19.05. 03:30161068 %1020
1020
1006
SSW 2 (4)>= 10000Bedeckt (1300) 
ASTURIAS/AVILES
ES 120
Do 19.05. 03:00161068 %1020
1020
1006
SW 2 (5)>= 10000Bedeckt (1300) 
ASTURIAS/AVILES
ES 120
Do 19.05. 02:30161068 %1020
1020
1006
SSW 2 (4)>= 10000Bedeckt (1200) 
ASTURIAS/AVILES
ES 120
Do 19.05. 02:00161068 %1020
1020
1006
SSW 2 (4)>= 10000Bedeckt (1200) 
ASTURIAS/AVILES
ES 120
Do 19.05. 01:30161068 %1020
1020
1006
S 2 (4)>= 10000Bedeckt (1200) 
ASTURIAS/AVILES
ES 120
Do 19.05. 01:00161068 %1020
1020
1006
S 2 (4)
SSO - SW
>= 10000Bedeckt (1500)
Wolkig (1200)
 
ASTURIAS/AVILES
ES 120
Do 19.05. 00:30161068 %1020
1020
1006
WSW 2 (4)>= 10000Bedeckt (1200) 
ASTURIAS/AVILES
ES 120
Do 19.05. 00:00161068 %1020
1020
1006
WSW 2 (4)>= 10000Bedeckt (1200) 
ASTURIAS/AVILES
ES 120
Mi 18.05. 23:30161068 %1020
1020
1006
WSW 2 (3)>= 10000Stark bewölkt (1200) 
ASTURIAS/AVILES
ES 120
Mi 18.05. 23:00161068 %1020
1020
1006
SSW 2 (3)>= 10000Stark bewölkt (1200) 
ASTURIAS/AVILES
ES 120
Mi 18.05. 22:30161172 %1020
1020
1006
S 2 (3)>= 10000Stark bewölkt (1200) 
ASTURIAS/AVILES
ES 120
Mi 18.05. 22:00161172 %1020
1020
1006
S 2 (4)>= 10000Stark bewölkt (1100) 
ASTURIAS/AVILES
ES 120
Mi 18.05. 21:30161172 %1020
1020
1006
S 2 (3)
SO - SW
>= 10000Stark bewölkt (980) 
ASTURIAS/AVILES
ES 120
Mi 18.05. 21:00161068 %1019
1019
1005
Uml 1 (2)>= 10000Stark bewölkt (980) 
ASTURIAS/AVILES
ES 120
Mi 18.05. 20:30161068 %1019
1019
1005
W 2 (4)
SW - WNW
>= 10000Stark bewölkt (1100) 
ASTURIAS/AVILES
ES 120
Mi 18.05. 20:00161068 %1019
1019
1005
W 2 (5)
SW - WNW
>= 10000Stark bewölkt (910) 
ASTURIAS/AVILES
ES 120
Mi 18.05. 19:30161068 %1019
1019
1005
Uml 1 (2)>= 10000Stark bewölkt (910) 
ASTURIAS/AVILES
ES 120
Mi 18.05. 19:00161172 %1019
1019
1005
W 2 (3)
SW - NW
>= 10000Stark bewölkt (910) 
ASTURIAS/AVILES
ES 120
Mi 18.05. 18:30161277 %1019
1019
1005
WNW 2 (5)
WSW - NW
>= 10000Stark bewölkt (910) 
ASTURIAS/AVILES
ES 120
Mi 18.05. 18:00161382 %1019
1019
1005
W 2 (5)
WSW - NNW
>= 10000Stark bewölkt (760)
Leicht bewölkt (180)
 
ASTURIAS/AVILES
ES 120
Mi 18.05. 17:30161382 %1019
1019
1005
W 3 (7)
WSW - NW
>= 10000Stark bewölkt (670)
Leicht bewölkt (180)
 
ASTURIAS/AVILES
ES 120
Mi 18.05. 17:00171482 %1018
1018
1004
WNW 3 (7)
WSW - N
>= 10000Stark bewölkt (670)
Leicht bewölkt (180)
 
ASTURIAS/AVILES
ES 120
Mi 18.05. 16:30171588 %1018
1018
1004
WNW 3 (8)
WSW - NNW
>= 10000Stark bewölkt (610)
Leicht bewölkt (180)
 
ASTURIAS/AVILES
ES 120
Mi 18.05. 16:00161488 %1018
1018
1004
WNW 3 (10)
W - NNW
>= 10000Stark bewölkt (180) 

Altimeter: Einstellung am Altimeter (Höhenmesser), die Höhe 0 muss auf diesen Luftdruckwert zeigen, damit das Gerät die Stationshöhe richtig anzeigt.

NN: Luftdruck reduziert auf "Normal Null", auf Meereshöhe, dieser von der Temperatur abhängige Wert wird bisweilen unkorrekt einfach als "Luftdruck" bezeichnet. Eigentlich nur eine fiktive Größe, die es erlaubt, Stationen auf unterschiedlichen Höhen miteinander zu vergleichen.

Station: Realer Luftdruck an der Station.